Brande, Denmark
Current Conditions -  °F | °C
As of 2:20 PM on Monday 22 Dec 2014 (Local Time) from EKBI Reporting Station
Scattered Clouds Scattered Clouds  
Wind Chill: 38°   Ceiling: Unl
Heat Index: 45°   Visibility: 6mi
Dew Point: 41°   Wind: 15mph
Humidity: 87%   Direction: 250°WSW
Pressure: 29.53"   Gusts: NA
Location:  55.94°N, 9.13°E
Report Text: EKBI 221320Z 25013KT 9999 SCT045 07/05 Q1000
Loading
Personal Weather Stations






























Interactive Weather Map New forecast layout! Learn more

10-Day Weather Forecast

Advertisements
Track Severe Weather on mobile